Terminal Aerodrome Forecast
Issued by NWS North Platte, NE

Home | Current Version | Previous Version | Graphics & Text | Print | Product List | Glossary On
Versions: 1 2 3 4 5 6 7 8 9 10 11 12 13 14 15 16 17
000
FTUS43 KLBF 231720
TAFVTN
TAF
KVTN 231720Z 2318/2418 17013G20KT P6SM SCT050
     FM240200 12011KT P6SM BKN100
     FM240500 20008KT P6SM VCSH BKN050
     FM240800 30012KT P6SM -SHRA BKN025 OVC050
     FM241100 31018G26KT P6SM -SHRA BKN015 OVC025
     FM241400 32022G29KT P6SM VCSH OVC015=

USA.gov is the U.S. government's official web portal to all federal, state and local government web resources and services.